Varina Meadows, VA

4:35 PM EDT on April 25, 2017 (GMT -0400)
Varina - Strath Road | | Change Station

Elev 150 ft 37.46 °N, 77.35 °W | Updated 23 seconds ago

Mostly Cloudy
Mostly Cloudy
67.5 °F
Feels Like 67.5 °F
N
4.0
Wind Variable Wind from NNW
Gusts 6.0 mph

Today
High -- | Low -- °F
--% Chance of Precip.
Yesterday
High -- | Low -- °F
Precip. -- in
Pressure 29.65 in
Visibility 10.0 miles
Clouds Mostly Cloudy 1000 ft
Mostly Cloudy 2400 ft
Mostly Cloudy 10000 ft
Dew Point 64 °F
Humidity 90%
Rainfall 0.33 in
Snow Depth Not available.
6:21 AM 7:54 PM
Waning Crescent, 1% visible
METAR KRIC 251954Z 01010KT 10SM BKN010 BKN024 BKN100 20/18 A2964 RMK AO2 SLP040 T02000178
Pressure 29.65 in
Visibility 10.0 miles
Clouds Mostly Cloudy 1000 ft
Mostly Cloudy 2400 ft
Mostly Cloudy 10000 ft
Dew Point 64 °F
Humidity 90%
Rainfall 0.33 in
Snow Depth Not available.
6:21 AM 7:54 PM
Waning Crescent, 1% visible
METAR KRIC 251954Z 01010KT 10SM BKN010 BKN024 BKN100 20/18 A2964 RMK AO2 SLP040 T02000178

Get Severe Weather Alerts

Thanks for signing up!

Be on the lookout for a verification email in your inbox.

You'll start receiving the daily forecast at 8 AM.

×

10-Day Weather Forecast

Almanac

Astronomy

Apr. 25, 2017 Rise Set
Actual Time
Civil Twilight
Nautical Twilight
Astronomical Twilight
Moon
Length of Visible Light
Length of Day
Tomorrow will be .
, % of the Moon is Illuminated

Today's Extremes

State Highs State Lows

Community

WunderPhotos

WunderBlog® & News

Nearby

Air Quality

  Air Quality AQ Index Pollutant
Not available.

Snow Depth

Station Depth Elevation

Earthquake Activity

City Distance Mag. Time & Date
Minimum magnitude displayed is 2.5.

Coastal Water Temperatures

Place Temperature

Stations

Nearby Weather Stations

Station Location Temp. Windchill Dew Point Humidity Wind Precip. Elev Updated Type
                   

Watches & Warnings

There are currently no watches in effect.